createdAt,value
2023-04-30T00:00:02.837Z,76.30
2023-04-30T00:02:37.310Z,76.30
2023-04-30T00:05:04.490Z,76.30
2023-04-30T00:07:32.089Z,76.30
2023-04-30T00:09:58.738Z,76.30
2023-04-30T00:12:25.413Z,76.30
2023-04-30T00:14:52.175Z,76.30
2023-04-30T00:17:18.842Z,76.30
2023-04-30T00:19:45.510Z,76.30
2023-04-30T00:22:12.190Z,76.30
2023-04-30T00:24:38.895Z,76.30
2023-04-30T00:27:05.832Z,76.20
2023-04-30T00:29:32.522Z,76.30
2023-04-30T00:31:59.256Z,76.20
2023-04-30T00:34:27.512Z,76.20
2023-04-30T00:36:54.182Z,76.30
2023-04-30T00:39:20.867Z,76.20
2023-04-30T00:41:47.700Z,76.20
2023-04-30T00:44:14.471Z,76.20
2023-04-30T00:46:41.314Z,76.20
2023-04-30T00:49:08.501Z,76.20
2023-04-30T00:51:36.454Z,76.20
2023-04-30T00:54:03.928Z,76.80
2023-04-30T00:56:31.729Z,76.10
2023-04-30T00:58:59.085Z,76.20
2023-04-30T01:01:28.937Z,76.20
2023-04-30T01:03:55.977Z,76.20
2023-04-30T01:06:23.199Z,76.20
2023-04-30T01:08:50.710Z,76.10
2023-04-30T01:11:31.014Z,76.20
2023-04-30T01:14:03.466Z,76.10
2023-04-30T01:16:36.426Z,76.10
2023-04-30T01:19:17.831Z,76.10
2023-04-30T01:21:45.389Z,76.20
2023-04-30T01:24:24.481Z,76.10
2023-04-30T01:27:34.264Z,76.10
2023-04-30T01:30:02.982Z,76.10
2023-04-30T01:32:30.331Z,76.10
2023-04-30T01:34:57.291Z,76.10
2023-04-30T01:37:41.207Z,76.10
2023-04-30T01:40:16.859Z,76.10
2023-04-30T01:42:53.555Z,76.10
2023-04-30T01:45:39.003Z,76.10
2023-04-30T01:48:24.457Z,76.10
2023-04-30T01:51:05.802Z,76.00
2023-04-30T01:53:43.820Z,76.10
2023-04-30T01:56:24.481Z,76.00
2023-04-30T01:58:52.874Z,76.00
2023-04-30T02:01:27.418Z,76.00
2023-04-30T02:03:54.729Z,76.00
2023-04-30T02:06:21.655Z,76.00
2023-04-30T02:08:48.382Z,76.00
2023-04-30T02:11:15.068Z,76.00
2023-04-30T02:13:41.806Z,76.00
2023-04-30T02:16:08.811Z,76.00
2023-04-30T02:18:35.657Z,76.00
2023-04-30T02:21:02.332Z,76.00
2023-04-30T02:23:29.049Z,76.00
2023-04-30T02:25:55.726Z,76.00
2023-04-30T02:28:22.415Z,75.90
2023-04-30T02:30:49.072Z,76.00
2023-04-30T02:33:16.824Z,75.90
2023-04-30T02:35:43.631Z,75.90
2023-04-30T02:38:10.448Z,75.90
2023-04-30T02:40:37.124Z,75.90
2023-04-30T02:43:03.825Z,75.90
2023-04-30T02:45:31.732Z,75.90
2023-04-30T02:47:58.603Z,75.90
2023-04-30T02:50:25.322Z,75.90
2023-04-30T02:52:52.067Z,75.80
2023-04-30T02:55:18.782Z,75.80
2023-04-30T02:57:45.481Z,75.80
2023-04-30T03:00:13.454Z,75.80
2023-04-30T03:02:40.415Z,75.80
2023-04-30T03:05:07.545Z,75.80
2023-04-30T03:07:34.409Z,75.80
2023-04-30T03:10:01.339Z,75.80
2023-04-30T03:12:28.059Z,75.80
2023-04-30T03:14:54.833Z,75.70
2023-04-30T03:17:21.696Z,75.80
2023-04-30T03:19:48.527Z,75.80
2023-04-30T03:22:15.217Z,75.80
2023-04-30T03:24:42.078Z,75.80
2023-04-30T03:27:08.986Z,75.70
2023-04-30T03:29:35.753Z,75.70
2023-04-30T03:32:02.651Z,75.70
2023-04-30T03:34:31.571Z,75.70
2023-04-30T03:36:58.269Z,75.70
2023-04-30T03:39:24.971Z,75.60
2023-04-30T03:41:52.746Z,75.70
2023-04-30T03:44:19.448Z,75.70
2023-04-30T03:46:46.184Z,75.70
2023-04-30T03:49:13.005Z,75.70
2023-04-30T03:51:41.837Z,75.70
2023-04-30T03:54:08.971Z,75.60
2023-04-30T03:56:37.289Z,75.60
2023-04-30T03:59:05.408Z,75.60
2023-04-30T04:01:33.141Z,75.60
2023-04-30T04:04:01.425Z,75.60
2023-04-30T04:06:28.333Z,75.60
2023-04-30T04:08:55.097Z,75.60
2023-04-30T04:11:22.863Z,75.60
2023-04-30T04:13:49.572Z,75.60
2023-04-30T04:16:16.296Z,75.50
2023-04-30T04:18:43.006Z,75.60
2023-04-30T04:21:09.690Z,75.50
2023-04-30T04:23:36.522Z,75.50
2023-04-30T04:26:03.264Z,75.50
2023-04-30T04:28:30.324Z,75.50
2023-04-30T04:30:57.343Z,75.50
2023-04-30T04:33:24.697Z,75.60
2023-04-30T04:35:51.358Z,75.50
2023-04-30T04:38:19.438Z,75.50
2023-04-30T04:40:53.588Z,75.50
2023-04-30T04:43:21.274Z,75.50
2023-04-30T04:45:48.113Z,75.40
2023-04-30T04:48:15.184Z,75.40
2023-04-30T04:50:42.178Z,75.50
2023-04-30T04:53:09.016Z,75.50
2023-04-30T04:55:36.161Z,75.40
2023-04-30T04:58:02.871Z,75.40
2023-04-30T05:00:29.825Z,75.40
2023-04-30T05:02:56.827Z,75.40
2023-04-30T05:05:23.603Z,75.40
2023-04-30T05:07:52.392Z,75.40
2023-04-30T05:10:19.351Z,75.40
2023-04-30T05:12:46.095Z,75.40
2023-04-30T05:15:12.985Z,75.30
2023-04-30T05:17:39.798Z,75.30
2023-04-30T05:20:07.438Z,75.90
2023-04-30T05:22:34.527Z,75.30
2023-04-30T05:25:01.190Z,75.30
2023-04-30T05:27:27.940Z,75.30
2023-04-30T05:29:54.810Z,75.30
2023-04-30T05:32:23.229Z,75.30
2023-04-30T05:34:50.028Z,75.30
2023-04-30T05:37:17.666Z,75.20
2023-04-30T05:39:44.367Z,75.30
2023-04-30T05:42:11.070Z,75.30
2023-04-30T05:44:37.743Z,75.20
2023-04-30T05:47:04.540Z,75.20
2023-04-30T05:49:32.358Z,75.20
2023-04-30T05:51:59.939Z,75.20
2023-04-30T05:54:26.622Z,75.20
2023-04-30T05:56:53.268Z,75.80
2023-04-30T05:59:19.931Z,75.10
2023-04-30T06:01:46.844Z,75.10
2023-04-30T06:04:13.582Z,75.10
2023-04-30T06:06:40.353Z,75.10
2023-04-30T06:09:07.321Z,75.10
2023-04-30T06:11:34.308Z,75.00
2023-04-30T06:14:01.792Z,75.00
2023-04-30T06:16:29.396Z,75.00
2023-04-30T06:18:56.174Z,75.00
2023-04-30T06:21:25.918Z,75.00
2023-04-30T06:23:53.039Z,75.00
2023-04-30T06:26:20.283Z,75.00
2023-04-30T06:28:47.059Z,75.00
2023-04-30T06:31:13.918Z,75.00
2023-04-30T06:33:40.697Z,75.00
2023-04-30T06:36:07.453Z,74.90
2023-04-30T06:38:34.112Z,74.90
2023-04-30T06:41:00.918Z,74.90
2023-04-30T06:43:27.569Z,74.80
2023-04-30T06:45:54.344Z,74.90
2023-04-30T06:48:21.001Z,74.80
2023-04-30T06:50:47.698Z,74.80
2023-04-30T06:53:15.048Z,74.70
2023-04-30T06:55:43.069Z,74.60
2023-04-30T06:58:09.824Z,74.70
2023-04-30T07:00:36.556Z,74.60
2023-04-30T07:03:04.611Z,74.60
2023-04-30T07:05:31.817Z,74.60
2023-04-30T07:08:01.409Z,74.70
2023-04-30T07:10:28.089Z,74.50
2023-04-30T07:12:55.159Z,74.50
2023-04-30T07:15:21.917Z,74.50
2023-04-30T07:17:48.601Z,74.50
2023-04-30T07:20:15.863Z,74.40
2023-04-30T07:22:46.440Z,74.50
2023-04-30T07:25:13.827Z,74.50
2023-04-30T07:27:40.856Z,75.00
2023-04-30T07:30:12.309Z,74.30
2023-04-30T07:32:41.000Z,74.40
2023-04-30T07:35:08.241Z,74.40
2023-04-30T07:37:35.960Z,74.30
2023-04-30T07:40:04.160Z,74.30
2023-04-30T07:42:30.914Z,74.30
2023-04-30T07:44:57.592Z,74.30
2023-04-30T07:47:25.433Z,74.40
2023-04-30T07:49:52.156Z,74.30
2023-04-30T07:52:19.186Z,74.30
2023-04-30T07:54:45.860Z,74.30
2023-04-30T07:57:13.045Z,74.30
2023-04-30T07:59:39.776Z,74.40
2023-04-30T08:02:08.326Z,74.30
2023-04-30T08:04:35.460Z,74.30
2023-04-30T08:07:02.642Z,74.30
2023-04-30T08:09:29.309Z,74.30
2023-04-30T08:11:56.008Z,74.30
2023-04-30T08:14:22.773Z,74.90
2023-04-30T08:16:49.456Z,74.30
2023-04-30T08:19:16.135Z,74.30
2023-04-30T08:21:42.902Z,74.30
2023-04-30T08:24:09.572Z,74.40
2023-04-30T08:26:36.269Z,74.40
2023-04-30T08:29:02.954Z,74.40
2023-04-30T08:31:29.813Z,74.50
2023-04-30T08:33:56.538Z,74.50
2023-04-30T08:36:23.306Z,74.40
2023-04-30T08:38:49.968Z,74.30
2023-04-30T08:41:16.775Z,74.30
2023-04-30T08:43:46.580Z,74.40
2023-04-30T08:46:13.924Z,74.50
2023-04-30T08:48:41.477Z,74.40
2023-04-30T08:51:08.435Z,74.40
2023-04-30T08:53:38.211Z,74.30
2023-04-30T08:56:05.227Z,74.40
2023-04-30T08:58:32.032Z,74.50
2023-04-30T09:00:59.698Z,74.40
2023-04-30T09:03:26.907Z,74.30
2023-04-30T09:05:54.928Z,74.20
2023-04-30T09:08:41.855Z,74.20
2023-04-30T09:11:26.324Z,74.30
2023-04-30T09:13:57.424Z,74.50
2023-04-30T09:16:25.843Z,74.30
2023-04-30T09:18:52.980Z,74.20
2023-04-30T09:21:36.280Z,74.30
2023-04-30T09:24:04.804Z,74.20
2023-04-30T09:26:37.496Z,74.30
2023-04-30T09:29:08.073Z,74.20
2023-04-30T09:31:39.148Z,74.20
2023-04-30T09:34:06.444Z,74.30
2023-04-30T09:36:34.446Z,74.30
2023-04-30T09:39:12.657Z,74.20
2023-04-30T09:41:41.958Z,74.30
2023-04-30T09:44:08.599Z,74.30
2023-04-30T09:46:37.318Z,74.30
2023-04-30T09:49:05.769Z,74.30
2023-04-30T09:51:32.688Z,74.20
2023-04-30T09:54:03.279Z,74.20
2023-04-30T09:56:33.558Z,74.20
2023-04-30T09:59:02.672Z,74.20
2023-04-30T10:01:29.520Z,74.30
2023-04-30T10:03:58.115Z,74.30
2023-04-30T10:06:25.619Z,74.30
2023-04-30T10:08:56.858Z,74.20
2023-04-30T10:11:28.496Z,74.30
2023-04-30T10:14:03.430Z,74.30
2023-04-30T10:16:55.359Z,74.20
2023-04-30T10:19:32.033Z,74.30
2023-04-30T10:21:59.429Z,74.30
2023-04-30T10:24:27.607Z,74.20
2023-04-30T10:26:57.154Z,74.20
2023-04-30T10:29:23.845Z,74.20
2023-04-30T10:31:52.731Z,74.20
2023-04-30T10:34:37.665Z,74.30
2023-04-30T10:37:14.531Z,74.20
2023-04-30T10:39:41.389Z,74.10
2023-04-30T10:42:10.494Z,74.10
2023-04-30T10:44:37.863Z,74.10
2023-04-30T10:47:06.349Z,74.00
2023-04-30T10:49:33.409Z,74.00
2023-04-30T10:52:01.739Z,74.10
2023-04-30T10:54:31.002Z,73.80
2023-04-30T10:57:14.368Z,74.00
2023-04-30T11:00:14.536Z,73.90
2023-04-30T11:02:47.284Z,74.00
2023-04-30T11:05:15.322Z,74.30
2023-04-30T11:07:49.279Z,73.80
2023-04-30T11:10:16.995Z,73.90
2023-04-30T11:12:51.837Z,73.80
2023-04-30T11:15:26.679Z,73.80
2023-04-30T11:17:58.854Z,73.80
2023-04-30T11:20:26.721Z,73.80
2023-04-30T11:23:10.284Z,73.80
2023-04-30T11:25:47.585Z,73.70
2023-04-30T11:28:23.112Z,73.80
2023-04-30T11:30:54.345Z,73.80
2023-04-30T11:33:22.761Z,73.80
2023-04-30T11:35:52.850Z,73.80
2023-04-30T11:38:36.500Z,73.90
2023-04-30T11:41:04.723Z,73.90
2023-04-30T11:43:33.236Z,73.90
2023-04-30T11:46:07.251Z,73.80
2023-04-30T11:48:42.143Z,73.80
2023-04-30T11:51:23.860Z,73.90
2023-04-30T11:53:51.766Z,74.00
2023-04-30T11:56:20.600Z,73.90
2023-04-30T11:58:47.942Z,73.80
2023-04-30T12:01:15.512Z,73.80
2023-04-30T12:03:44.576Z,73.80
2023-04-30T12:06:12.913Z,73.70
2023-04-30T12:08:41.370Z,73.60
2023-04-30T12:11:25.270Z,74.00
2023-04-30T12:14:03.396Z,73.50
2023-04-30T12:16:49.209Z,73.30
2023-04-30T12:19:17.477Z,73.50
2023-04-30T12:21:46.571Z,73.50
2023-04-30T12:24:14.641Z,73.50
2023-04-30T12:26:42.061Z,73.40
2023-04-30T12:29:13.500Z,73.40
2023-04-30T12:31:42.673Z,73.50
2023-04-30T12:34:11.916Z,73.20
2023-04-30T12:36:42.721Z,73.40
2023-04-30T12:39:11.294Z,73.20
2023-04-30T12:41:43.214Z,73.40
2023-04-30T12:44:27.829Z,73.10
2023-04-30T12:46:57.274Z,73.10
2023-04-30T12:49:28.927Z,73.10
2023-04-30T12:52:01.149Z,73.10
2023-04-30T12:54:29.019Z,72.90
2023-04-30T12:57:03.918Z,73.10
2023-04-30T12:59:32.607Z,73.10
2023-04-30T13:02:10.066Z,73.10
2023-04-30T13:04:37.430Z,73.00
2023-04-30T13:07:04.933Z,72.90
2023-04-30T13:09:35.970Z,72.90
2023-04-30T13:12:03.211Z,73.10
2023-04-30T13:14:33.338Z,73.00
2023-04-30T13:17:02.598Z,72.90
2023-04-30T13:19:30.200Z,73.00
2023-04-30T13:21:57.623Z,72.70
2023-04-30T13:24:24.638Z,72.60
2023-04-30T13:26:51.514Z,72.70
2023-04-30T13:29:20.754Z,72.80
2023-04-30T13:31:49.071Z,72.80
2023-04-30T13:34:15.980Z,72.80
2023-04-30T13:36:42.726Z,72.70
2023-04-30T13:39:09.387Z,73.40
2023-04-30T13:41:36.143Z,72.90
2023-04-30T13:44:03.073Z,72.90
2023-04-30T13:46:30.500Z,72.70
2023-04-30T13:48:57.211Z,72.70
2023-04-30T13:51:23.913Z,72.70
2023-04-30T13:53:50.594Z,72.80
2023-04-30T13:56:17.278Z,72.80
2023-04-30T13:58:44.099Z,72.90
2023-04-30T14:01:10.945Z,72.70
2023-04-30T14:03:37.939Z,72.70
2023-04-30T14:06:06.030Z,72.80
2023-04-30T14:08:33.690Z,72.70
2023-04-30T14:11:00.840Z,72.70
2023-04-30T14:13:27.602Z,72.70
2023-04-30T14:15:55.910Z,72.60
2023-04-30T14:18:22.964Z,72.50
2023-04-30T14:20:49.901Z,72.50
2023-04-30T14:23:16.618Z,72.60
2023-04-30T14:25:44.396Z,72.50
2023-04-30T14:28:11.792Z,72.40
2023-04-30T14:30:38.580Z,72.40
2023-04-30T14:33:05.487Z,72.50
2023-04-30T14:35:33.436Z,72.50
2023-04-30T14:38:00.181Z,72.40
2023-04-30T14:40:26.955Z,72.40
2023-04-30T14:42:53.606Z,72.40
2023-04-30T14:45:20.655Z,72.20
2023-04-30T14:47:47.490Z,72.20
2023-04-30T14:50:14.239Z,72.20
2023-04-30T14:52:42.030Z,72.10
2023-04-30T14:55:09.130Z,72.20
2023-04-30T14:57:36.366Z,72.30
2023-04-30T15:00:04.006Z,72.10
2023-04-30T15:02:30.737Z,72.10
2023-04-30T15:04:57.551Z,72.10
2023-04-30T15:07:24.228Z,72.40
2023-04-30T15:09:52.426Z,72.30
2023-04-30T15:12:19.267Z,72.10
2023-04-30T15:14:45.999Z,72.30
2023-04-30T15:17:12.663Z,72.20
2023-04-30T15:19:39.364Z,72.30
2023-04-30T15:22:09.326Z,72.30
2023-04-30T15:24:36.259Z,72.30
2023-04-30T15:27:04.282Z,72.30
2023-04-30T15:29:30.949Z,72.50
2023-04-30T15:31:59.692Z,72.50
2023-04-30T15:34:26.546Z,72.50
2023-04-30T15:36:53.309Z,72.30
2023-04-30T15:39:21.787Z,72.40
2023-04-30T15:41:48.497Z,72.30
2023-04-30T15:44:15.161Z,72.20
2023-04-30T15:46:41.992Z,72.30
2023-04-30T15:49:08.840Z,72.20
2023-04-30T15:51:36.657Z,72.30
2023-04-30T15:54:03.381Z,72.20
2023-04-30T15:56:30.498Z,72.00
2023-04-30T15:58:57.279Z,71.90
2023-04-30T16:01:24.114Z,72.00
2023-04-30T16:03:50.998Z,72.00
2023-04-30T16:06:18.128Z,72.10
2023-04-30T16:08:46.323Z,71.90
2023-04-30T16:11:13.024Z,71.90
2023-04-30T16:13:39.721Z,72.00
2023-04-30T16:16:08.674Z,72.10
2023-04-30T16:18:35.421Z,72.10
2023-04-30T16:21:02.305Z,72.10
2023-04-30T16:23:28.952Z,71.90
2023-04-30T16:25:56.415Z,72.10
2023-04-30T16:28:24.124Z,72.10
2023-04-30T16:30:51.100Z,72.00
2023-04-30T16:33:17.939Z,72.10
2023-04-30T16:35:44.789Z,72.10
2023-04-30T16:38:11.615Z,72.00
2023-04-30T16:40:38.340Z,72.00
2023-04-30T16:43:06.119Z,72.00
2023-04-30T16:45:33.134Z,72.00
2023-04-30T16:48:00.391Z,72.00
2023-04-30T16:50:27.243Z,71.90
2023-04-30T16:52:54.130Z,71.90
2023-04-30T16:55:21.044Z,72.00
2023-04-30T16:57:47.719Z,72.00
2023-04-30T17:00:16.686Z,71.80
2023-04-30T17:02:48.910Z,71.80
2023-04-30T17:05:16.157Z,71.80
2023-04-30T17:07:45.631Z,72.00
2023-04-30T17:10:12.992Z,71.90
2023-04-30T17:12:40.055Z,71.80
2023-04-30T17:15:07.440Z,71.90
2023-04-30T17:17:34.183Z,72.00
2023-04-30T17:20:00.889Z,71.90
2023-04-30T17:22:27.584Z,71.90
2023-04-30T17:24:54.271Z,71.90
2023-04-30T17:27:21.344Z,71.80
2023-04-30T17:29:48.527Z,71.90
2023-04-30T17:32:17.599Z,71.80
2023-04-30T17:34:44.713Z,71.90
2023-04-30T17:37:11.901Z,72.00
2023-04-30T17:39:38.588Z,71.90
2023-04-30T17:42:05.431Z,71.90
2023-04-30T17:44:33.607Z,71.80
2023-04-30T17:47:00.330Z,71.90
2023-04-30T17:49:27.856Z,71.80
2023-04-30T17:51:54.619Z,71.90
2023-04-30T17:54:21.289Z,71.90
2023-04-30T17:56:48.448Z,72.00
2023-04-30T17:59:15.584Z,71.90
2023-04-30T18:01:42.378Z,72.00
2023-04-30T18:04:09.192Z,72.00
2023-04-30T18:06:36.234Z,72.00
2023-04-30T18:09:04.161Z,72.00
2023-04-30T18:11:30.911Z,72.00
2023-04-30T18:13:57.571Z,72.00
2023-04-30T18:16:24.303Z,72.00
2023-04-30T18:18:51.321Z,72.00
2023-04-30T18:21:18.360Z,72.00
2023-04-30T18:23:45.026Z,72.00
2023-04-30T18:26:11.738Z,72.20
2023-04-30T18:28:38.426Z,72.00
2023-04-30T18:31:05.124Z,72.10
2023-04-30T18:33:31.827Z,72.10
2023-04-30T18:36:01.531Z,72.20
2023-04-30T18:38:29.676Z,72.10
2023-04-30T18:40:56.904Z,72.20
2023-04-30T18:43:24.116Z,72.30
2023-04-30T18:45:51.206Z,72.20
2023-04-30T18:48:19.052Z,72.20
2023-04-30T18:50:46.456Z,72.30
2023-04-30T18:53:13.461Z,72.20
2023-04-30T18:55:40.163Z,72.20
2023-04-30T18:58:08.216Z,72.20
2023-04-30T19:00:34.950Z,72.20
2023-04-30T19:03:01.882Z,72.20
2023-04-30T19:05:28.662Z,72.20
2023-04-30T19:07:55.345Z,72.20
2023-04-30T19:10:22.058Z,72.30
2023-04-30T19:12:49.274Z,72.40
2023-04-30T19:15:17.740Z,72.40
2023-04-30T19:17:44.575Z,72.20
2023-04-30T19:20:12.051Z,72.20
2023-04-30T19:22:38.870Z,72.20
2023-04-30T19:25:06.056Z,72.20
2023-04-30T19:27:32.705Z,72.20
2023-04-30T19:29:59.477Z,72.20
2023-04-30T19:32:26.232Z,72.20
2023-04-30T19:34:53.409Z,72.80
2023-04-30T19:37:20.086Z,72.20
2023-04-30T19:39:47.007Z,72.20
2023-04-30T19:42:13.714Z,72.40
2023-04-30T19:44:40.402Z,72.30
2023-04-30T19:47:07.113Z,72.40
2023-04-30T19:49:34.231Z,72.30
2023-04-30T19:52:01.533Z,72.40
2023-04-30T19:54:28.239Z,72.40
2023-04-30T19:56:54.977Z,72.30
2023-04-30T19:59:21.950Z,72.40
2023-04-30T20:01:48.925Z,72.30
2023-04-30T20:04:15.771Z,72.30
2023-04-30T20:06:42.607Z,72.30
2023-04-30T20:09:09.332Z,72.30
2023-04-30T20:11:36.132Z,72.20
2023-04-30T20:14:04.151Z,72.20
2023-04-30T20:16:31.293Z,72.20
2023-04-30T20:18:58.116Z,72.40
2023-04-30T20:21:25.989Z,72.40
2023-04-30T20:23:52.673Z,72.30
2023-04-30T20:26:21.016Z,72.30
2023-04-30T20:28:48.268Z,72.20
2023-04-30T20:31:15.105Z,72.20
2023-04-30T20:33:42.331Z,72.30
2023-04-30T20:36:08.993Z,72.20
2023-04-30T20:38:36.152Z,72.20
2023-04-30T20:41:02.933Z,72.20
2023-04-30T20:43:29.751Z,72.20
2023-04-30T20:45:58.876Z,72.10
2023-04-30T20:48:26.561Z,72.20
2023-04-30T20:50:53.211Z,72.20
2023-04-30T20:53:20.001Z,72.10
2023-04-30T20:55:46.667Z,72.10
2023-04-30T20:58:13.351Z,72.10
2023-04-30T21:00:40.107Z,72.00
2023-04-30T21:03:07.018Z,72.00
2023-04-30T21:05:34.261Z,72.00
2023-04-30T21:08:01.716Z,72.10
2023-04-30T21:10:36.471Z,72.00
2023-04-30T21:13:08.783Z,72.00
2023-04-30T21:15:36.155Z,72.00
2023-04-30T21:18:03.137Z,72.00
2023-04-30T21:20:31.386Z,72.00
2023-04-30T21:22:58.367Z,71.90
2023-04-30T21:25:25.098Z,71.90
2023-04-30T21:27:52.218Z,71.90
2023-04-30T21:30:19.093Z,71.90
2023-04-30T21:32:47.087Z,71.90
2023-04-30T21:35:14.538Z,71.90
2023-04-30T21:37:41.925Z,71.90
2023-04-30T21:40:09.074Z,71.90
2023-04-30T21:42:35.914Z,71.90
2023-04-30T21:45:02.939Z,71.80
2023-04-30T21:47:30.425Z,71.80
2023-04-30T21:49:58.576Z,71.80
2023-04-30T21:52:25.667Z,71.80
2023-04-30T21:54:52.355Z,71.80
2023-04-30T21:57:19.419Z,71.80
2023-04-30T21:59:46.265Z,71.80
2023-04-30T22:04:47.605Z,71.80
2023-04-30T22:07:14.389Z,71.80
2023-04-30T22:09:41.104Z,71.80
2023-04-30T22:12:09.230Z,71.80
2023-04-30T22:14:36.201Z,71.80
2023-04-30T22:17:02.880Z,71.80
2023-04-30T22:19:29.578Z,71.80
2023-04-30T22:21:56.311Z,71.80
2023-04-30T22:24:23.163Z,71.80
2023-04-30T22:26:50.181Z,71.80
2023-04-30T22:29:16.974Z,71.80
2023-04-30T22:31:43.767Z,71.80
2023-04-30T22:34:10.824Z,71.80
2023-04-30T22:36:37.644Z,71.80
2023-04-30T22:39:04.763Z,71.80
2023-04-30T22:41:34.074Z,71.80
2023-04-30T22:44:01.075Z,71.70
2023-04-30T22:46:29.761Z,71.70
2023-04-30T22:48:56.707Z,71.80
2023-04-30T22:51:23.566Z,71.70
2023-04-30T22:53:50.485Z,71.80
2023-04-30T22:56:17.186Z,71.70
2023-04-30T22:58:43.860Z,71.60
2023-04-30T23:01:10.643Z,71.60
2023-04-30T23:03:38.508Z,71.60
2023-04-30T23:06:05.506Z,71.60
2023-04-30T23:08:32.240Z,71.50
2023-04-30T23:10:59.061Z,71.50
2023-04-30T23:13:25.752Z,71.50
2023-04-30T23:15:56.556Z,71.50
2023-04-30T23:18:23.781Z,71.50
2023-04-30T23:20:50.526Z,71.50
2023-04-30T23:23:17.295Z,71.40
2023-04-30T23:25:44.043Z,71.40
2023-04-30T23:28:10.741Z,71.30
2023-04-30T23:30:39.004Z,71.30
2023-04-30T23:33:05.697Z,71.30
2023-04-30T23:35:32.455Z,71.30
2023-04-30T23:37:59.175Z,71.20
2023-04-30T23:40:25.843Z,71.20
2023-04-30T23:42:52.557Z,71.20
2023-04-30T23:45:20.737Z,71.20
2023-04-30T23:47:47.665Z,71.20
2023-04-30T23:50:14.975Z,71.20
2023-04-30T23:52:41.718Z,71.20
2023-04-30T23:55:08.674Z,71.20
2023-04-30T23:57:35.570Z,71.20
